Terminal Aerodrome Forecast
Issued by NWS Amarillo, TX

Home | Current Version | Previous Version | Text Only | Print | Product List | Glossary On
Versions: 1 2 3 4 5 6 7 8 9 10 11 12 13
530
FTUS44 KAMA 260520
TAFGUY
TAF
KGUY 260520Z 2606/2706 20006KT P6SM FEW200
     FM261600 20019G29KT P6SM FEW200
     FM270100 20011KT P6SM SKC=

USA.gov is the U.S. government's official web portal to all federal, state and local government web resources and services.